createdAt,value
2022-11-07T00:00:25.158Z,19.90
2022-11-07T00:04:35.347Z,19.00
2022-11-07T00:08:38.692Z,18.40
2022-11-07T00:12:41.983Z,21.10
2022-11-07T00:16:47.118Z,17.90
2022-11-07T00:20:50.431Z,18.30
2022-11-07T00:24:53.812Z,20.60
2022-11-07T00:28:57.169Z,19.00
2022-11-07T00:33:00.641Z,18.40
2022-11-07T00:37:03.998Z,18.50
2022-11-07T00:41:07.679Z,20.90
2022-11-07T00:45:12.022Z,19.70
2022-11-07T00:49:15.346Z,17.70
2022-11-07T00:53:18.649Z,18.30
2022-11-07T00:57:22.049Z,19.50
2022-11-07T01:01:28.456Z,20.40
2022-11-07T01:05:31.856Z,19.20
2022-11-07T01:09:35.287Z,20.30
2022-11-07T01:13:38.590Z,18.70
2022-11-07T01:17:41.851Z,25.20
2022-11-07T01:21:45.596Z,26.50
2022-11-07T01:25:49.466Z,26.60
2022-11-07T01:29:52.811Z,24.30
2022-11-07T01:33:56.085Z,23.10
2022-11-07T01:37:59.415Z,24.80
2022-11-07T01:42:03.039Z,20.70
2022-11-07T01:46:06.327Z,21.50
2022-11-07T01:50:10.387Z,20.90
2022-11-07T01:54:17.270Z,22.10
2022-11-07T01:58:20.640Z,21.00
2022-11-07T02:02:27.289Z,24.70
2022-11-07T02:06:42.685Z,24.10
2022-11-07T02:10:46.148Z,24.10
2022-11-07T02:14:49.888Z,25.20
2022-11-07T02:18:53.323Z,25.90
2022-11-07T02:23:04.505Z,26.70
2022-11-07T02:27:13.101Z,25.70
2022-11-07T02:31:16.422Z,25.30
2022-11-07T02:35:40.105Z,24.90
2022-11-07T02:39:43.366Z,23.20
2022-11-07T02:43:53.083Z,25.80
2022-11-07T02:47:57.000Z,22.50
2022-11-07T02:52:00.301Z,24.30
2022-11-07T02:56:04.508Z,22.50
2022-11-07T03:00:12.164Z,25.20
2022-11-07T03:04:15.811Z,25.40
2022-11-07T03:08:19.101Z,23.20
2022-11-07T03:12:22.363Z,22.90
2022-11-07T03:16:25.649Z,24.70
2022-11-07T03:20:29.008Z,23.00
2022-11-07T03:24:32.834Z,22.90
2022-11-07T03:28:36.144Z,22.10
2022-11-07T03:32:39.441Z,21.80
2022-11-07T03:36:42.735Z,22.80
2022-11-07T03:40:46.851Z,25.50
2022-11-07T03:44:50.138Z,21.60
2022-11-07T03:48:53.413Z,22.70
2022-11-07T03:52:56.699Z,21.00
2022-11-07T03:57:00.078Z,23.80
2022-11-07T04:01:04.134Z,20.80
2022-11-07T04:05:08.399Z,23.20
2022-11-07T04:09:11.698Z,21.60
2022-11-07T04:13:33.900Z,21.70
2022-11-07T04:17:37.248Z,21.90
2022-11-07T04:21:40.538Z,19.80
2022-11-07T04:26:02.691Z,24.20
2022-11-07T04:30:28.411Z,25.50
2022-11-07T04:34:31.786Z,23.00
2022-11-07T04:38:35.046Z,20.80
2022-11-07T04:42:39.180Z,21.50
2022-11-07T04:46:42.536Z,21.10
2022-11-07T04:50:46.784Z,21.70
2022-11-07T04:54:50.126Z,20.20
2022-11-07T04:58:53.392Z,22.80
2022-11-07T05:02:56.763Z,21.10
2022-11-07T05:07:00.139Z,21.10
2022-11-07T05:11:03.502Z,21.60
2022-11-07T05:15:07.690Z,21.10
2022-11-07T05:19:18.490Z,20.00
2022-11-07T05:23:22.389Z,20.30
2022-11-07T05:27:26.022Z,19.90
2022-11-07T05:31:29.444Z,20.70
2022-11-07T05:35:32.807Z,20.00
2022-11-07T05:39:36.497Z,19.80
2022-11-07T05:43:40.388Z,18.40
2022-11-07T05:47:43.750Z,19.80
2022-11-07T05:51:47.048Z,20.80
2022-11-07T05:55:50.422Z,17.50
2022-11-07T05:59:53.716Z,21.50
2022-11-07T06:03:56.967Z,19.10
2022-11-07T06:08:00.272Z,19.90
2022-11-07T06:12:04.220Z,18.50
2022-11-07T06:16:08.028Z,20.60
2022-11-07T06:20:11.666Z,18.50
2022-11-07T06:24:15.619Z,19.90
2022-11-07T06:28:19.059Z,18.80
2022-11-07T06:32:22.398Z,19.80
2022-11-07T06:36:25.933Z,18.00
2022-11-07T06:40:29.814Z,18.50
2022-11-07T06:44:33.492Z,16.30
2022-11-07T06:48:36.769Z,19.10
2022-11-07T06:52:40.136Z,17.40
2022-11-07T06:56:43.777Z,17.60
2022-11-07T07:00:47.178Z,16.40
2022-11-07T07:04:50.569Z,15.80
2022-11-07T07:08:54.742Z,14.50
2022-11-07T07:12:58.179Z,17.50
2022-11-07T07:17:01.624Z,17.80
2022-11-07T07:21:07.995Z,17.00
2022-11-07T07:25:11.899Z,15.30
2022-11-07T07:29:15.282Z,16.80
2022-11-07T07:33:18.995Z,16.50
2022-11-07T07:37:22.595Z,17.10
2022-11-07T07:41:25.863Z,16.40
2022-11-07T07:45:29.256Z,17.10
2022-11-07T07:49:32.539Z,15.10
2022-11-07T07:53:35.848Z,16.10
2022-11-07T07:57:43.336Z,16.10
2022-11-07T08:01:49.818Z,17.00
2022-11-07T08:05:58.154Z,16.20
2022-11-07T08:10:26.907Z,17.00
2022-11-07T08:14:24.853Z,18.20
2022-11-07T08:18:28.189Z,16.60
2022-11-07T08:22:31.560Z,17.50
2022-11-07T08:26:35.538Z,16.30
2022-11-07T08:30:38.893Z,17.60
2022-11-07T08:34:42.346Z,16.40
2022-11-07T08:38:45.780Z,19.10
2022-11-07T08:42:49.509Z,16.40
2022-11-07T08:46:53.113Z,17.30
2022-11-07T08:50:58.418Z,17.10
2022-11-07T08:55:02.465Z,16.10
2022-11-07T08:59:05.818Z,17.10
2022-11-07T09:07:39.896Z,17.20
2022-11-07T09:11:43.273Z,16.40
2022-11-07T09:15:50.902Z,16.20
2022-11-07T09:23:58.711Z,16.30
2022-11-07T09:28:03.332Z,16.80
2022-11-07T09:32:30.492Z,19.00
2022-11-07T09:36:29.989Z,16.30
2022-11-07T09:40:40.877Z,16.40
2022-11-07T09:45:01.585Z,17.70
2022-11-07T09:49:19.930Z,15.30
2022-11-07T09:53:48.222Z,17.10
2022-11-07T09:57:59.147Z,17.60
2022-11-07T10:02:12.147Z,17.30
2022-11-07T10:06:29.058Z,16.60
2022-11-07T10:10:51.683Z,15.90
2022-11-07T10:15:43.300Z,14.60
2022-11-07T10:20:33.581Z,15.50
2022-11-07T10:24:58.650Z,16.70
2022-11-07T10:29:22.263Z,16.20
2022-11-07T10:33:46.751Z,14.90
2022-11-07T10:37:59.092Z,15.50
2022-11-07T10:42:16.997Z,15.90
2022-11-07T10:46:28.924Z,15.60
2022-11-07T10:50:32.751Z,16.30
2022-11-07T10:54:36.103Z,15.60
2022-11-07T10:58:46.721Z,13.90
2022-11-07T11:02:51.634Z,14.80
2022-11-07T11:07:06.935Z,14.30
2022-11-07T11:11:19.322Z,15.40
2022-11-07T11:15:25.396Z,14.00
2022-11-07T11:19:49.295Z,15.00
2022-11-07T11:23:54.536Z,14.40
2022-11-07T11:28:05.571Z,14.30
2022-11-07T11:32:21.489Z,15.30
2022-11-07T11:36:33.340Z,15.00
2022-11-07T11:40:40.608Z,14.30
2022-11-07T11:44:46.015Z,13.40
2022-11-07T11:48:58.248Z,15.10
2022-11-07T11:53:01.938Z,12.80
2022-11-07T11:57:11.718Z,12.90
2022-11-07T12:01:37.299Z,12.10
2022-11-07T12:06:11.917Z,12.00
2022-11-07T12:10:39.529Z,12.80
2022-11-07T12:15:03.530Z,12.20
2022-11-07T12:19:25.364Z,12.50
2022-11-07T12:23:47.169Z,11.50
2022-11-07T12:27:59.902Z,11.80
2022-11-07T12:32:30.256Z,11.20
2022-11-07T12:36:39.964Z,11.40
2022-11-07T12:41:09.105Z,10.60
2022-11-07T12:45:42.998Z,13.00
2022-11-07T12:50:08.266Z,10.10
2022-11-07T12:54:20.454Z,9.30
2022-11-07T12:58:35.312Z,8.50
2022-11-07T13:02:55.052Z,8.00
2022-11-07T13:07:21.352Z,8.70
2022-11-07T13:11:52.255Z,8.50
2022-11-07T13:16:14.973Z,7.70
2022-11-07T13:20:22.062Z,8.20
2022-11-07T13:24:25.477Z,7.50
2022-11-07T13:28:42.124Z,7.10
2022-11-07T13:32:48.437Z,7.00
2022-11-07T13:36:58.573Z,7.90
2022-11-07T13:41:04.942Z,7.70
2022-11-07T13:45:39.083Z,8.50
2022-11-07T13:49:48.463Z,9.10
2022-11-07T13:53:58.009Z,8.90
2022-11-07T13:58:07.147Z,14.30
2022-11-07T14:02:21.179Z,9.40
2022-11-07T14:06:24.692Z,8.10
2022-11-07T14:10:48.693Z,8.20
2022-11-07T14:14:55.738Z,9.80
2022-11-07T14:19:13.153Z,9.20
2022-11-07T14:23:21.641Z,6.60
2022-11-07T14:27:25.572Z,7.40
2022-11-07T14:31:35.180Z,8.50
2022-11-07T14:35:45.365Z,7.70
2022-11-07T14:39:49.864Z,8.00
2022-11-07T14:43:53.597Z,8.60
2022-11-07T14:47:57.730Z,8.60
2022-11-07T14:52:01.670Z,9.50
2022-11-07T14:56:11.215Z,12.30
2022-11-07T15:00:17.561Z,11.20
2022-11-07T15:04:29.042Z,26.60
2022-11-07T15:08:37.746Z,10.60
2022-11-07T15:16:55.463Z,14.20
2022-11-07T15:21:01.345Z,12.80
2022-11-07T15:25:34.840Z,13.90
2022-11-07T15:29:38.172Z,12.10
2022-11-07T15:33:41.752Z,12.20
2022-11-07T15:37:57.534Z,16.60
2022-11-07T15:42:00.850Z,15.90
2022-11-07T15:46:12.993Z,10.90
2022-11-07T15:50:17.591Z,9.90
2022-11-07T15:54:21.157Z,9.40
2022-11-07T15:58:27.196Z,8.10
2022-11-07T16:02:30.905Z,7.20
2022-11-07T16:06:35.615Z,7.90
2022-11-07T16:10:44.041Z,7.70
2022-11-07T16:14:47.450Z,7.20
2022-11-07T16:18:53.476Z,9.00
2022-11-07T16:22:56.794Z,8.40
2022-11-07T16:27:00.253Z,8.60
2022-11-07T16:31:03.754Z,6.70
2022-11-07T16:35:07.343Z,7.70
2022-11-07T16:39:22.133Z,18.90
2022-11-07T16:43:25.446Z,11.80
2022-11-07T16:47:31.994Z,10.30
2022-11-07T16:51:35.337Z,11.40
2022-11-07T16:55:40.083Z,13.50
2022-11-07T16:59:44.884Z,18.50
2022-11-07T17:03:48.250Z,15.80
2022-11-07T17:07:51.753Z,18.00
2022-11-07T17:11:55.099Z,18.50
2022-11-07T17:15:59.019Z,15.20
2022-11-07T17:20:02.349Z,11.60
2022-11-07T17:24:06.099Z,12.60
2022-11-07T17:28:09.854Z,12.20
2022-11-07T17:32:13.144Z,15.10
2022-11-07T17:36:35.388Z,11.40
2022-11-07T17:40:40.805Z,11.20
2022-11-07T17:44:44.087Z,10.30
2022-11-07T17:48:48.797Z,8.80
2022-11-07T17:52:52.622Z,7.50
2022-11-07T17:56:55.966Z,9.30
2022-11-07T18:00:59.323Z,10.20
2022-11-07T18:05:02.703Z,17.10
2022-11-07T18:09:08.394Z,9.80
2022-11-07T18:13:11.760Z,13.40
2022-11-07T18:17:15.088Z,16.00
2022-11-07T18:21:18.576Z,16.30
2022-11-07T18:25:21.892Z,15.90
2022-11-07T18:29:25.300Z,17.10
2022-11-07T18:33:29.505Z,6.50
2022-11-07T18:37:32.837Z,20.80
2022-11-07T18:41:36.291Z,41.80
2022-11-07T18:45:41.930Z,16.60
2022-11-07T18:49:45.366Z,21.40
2022-11-07T18:53:50.502Z,76.40
2022-11-07T18:57:53.883Z,28.90
2022-11-07T19:01:57.303Z,31.90
2022-11-07T19:06:01.737Z,15.50
2022-11-07T19:10:05.600Z,15.50
2022-11-07T19:14:09.344Z,9.60
2022-11-07T19:18:12.726Z,10.20
2022-11-07T19:22:17.324Z,17.70
2022-11-07T19:26:20.853Z,25.40
2022-11-07T19:30:25.110Z,8.80
2022-11-07T19:34:28.507Z,6.70
2022-11-07T19:38:32.081Z,6.20
2022-11-07T19:42:35.349Z,7.40
2022-11-07T19:46:38.841Z,6.90
2022-11-07T19:50:42.306Z,5.60
2022-11-07T19:54:45.811Z,5.80
2022-11-07T19:58:49.169Z,6.30
2022-11-07T20:02:53.705Z,5.60
2022-11-07T20:06:57.237Z,6.20
2022-11-07T20:11:00.504Z,5.80
2022-11-07T20:15:04.072Z,6.30
2022-11-07T20:19:07.443Z,7.40
2022-11-07T20:23:10.830Z,8.50
2022-11-07T20:27:14.893Z,9.60
2022-11-07T20:31:21.578Z,9.00
2022-11-07T20:35:24.884Z,8.20
2022-11-07T20:39:28.280Z,6.60
2022-11-07T20:43:34.073Z,6.10
2022-11-07T20:47:37.439Z,5.40
2022-11-07T20:51:41.466Z,5.80
2022-11-07T20:55:45.385Z,26.80
2022-11-07T20:59:48.758Z,8.70
2022-11-07T21:03:52.236Z,6.90
2022-11-07T21:07:55.988Z,5.90
2022-11-07T21:11:59.431Z,6.90
2022-11-07T21:16:03.120Z,6.30
2022-11-07T21:20:07.517Z,7.60
2022-11-07T21:24:10.835Z,10.90
2022-11-07T21:28:20.094Z,9.10
2022-11-07T21:32:23.547Z,8.30
2022-11-07T21:36:32.750Z,11.50
2022-11-07T21:40:36.616Z,9.20
2022-11-07T21:44:40.078Z,8.40
2022-11-07T21:48:44.450Z,7.50
2022-11-07T21:52:49.279Z,12.10
2022-11-07T21:56:52.651Z,15.90
2022-11-07T22:00:56.058Z,11.40
2022-11-07T22:04:59.367Z,7.80
2022-11-07T22:09:04.134Z,8.70
2022-11-07T22:13:07.618Z,7.80
2022-11-07T22:17:11.149Z,7.50
2022-11-07T22:21:21.015Z,7.30
2022-11-07T22:25:24.331Z,8.20
2022-11-07T22:29:27.607Z,7.70
2022-11-07T22:33:30.992Z,7.60
2022-11-07T22:37:34.440Z,8.20
2022-11-07T22:41:37.965Z,9.00
2022-11-07T22:45:41.630Z,11.90
2022-11-07T22:49:44.925Z,9.70
2022-11-07T22:53:48.832Z,12.80
2022-11-07T22:57:53.558Z,12.00
2022-11-07T23:01:57.161Z,12.50
2022-11-07T23:06:04.891Z,11.90
2022-11-07T23:10:08.509Z,11.80
2022-11-07T23:14:13.900Z,12.60
2022-11-07T23:18:17.415Z,12.10
2022-11-07T23:22:21.932Z,12.40
2022-11-07T23:26:26.574Z,12.80
2022-11-07T23:30:30.573Z,12.40
2022-11-07T23:34:35.416Z,12.10
2022-11-07T23:38:38.663Z,11.70
2022-11-07T23:42:42.891Z,12.20
2022-11-07T23:47:05.153Z,14.00
2022-11-07T23:51:13.347Z,13.00
2022-11-07T23:55:35.564Z,13.90
2022-11-07T23:59:57.451Z,13.60
